sensor_id;sensor_type;location;lat;lon;timestamp;P1;durP1;ratioP1;P2;durP2;ratioP2
65753;SDS011;52488;47.502;18.940;2022-09-09T00:00:47;2.10;;;0.98;;
65753;SDS011;52488;47.502;18.940;2022-09-09T00:02:01;1.30;;;1.00;;
65753;SDS011;52488;47.502;18.940;2022-09-09T00:03:26;1.17;;;0.90;;
65753;SDS011;52488;47.502;18.940;2022-09-09T00:04:35;1.00;;;1.00;;
65753;SDS011;52488;47.502;18.940;2022-09-09T00:07:03;2.33;;;1.20;;
65753;SDS011;52488;47.502;18.940;2022-09-09T00:11:51;1.52;;;1.08;;
65753;SDS011;52488;47.502;18.940;2022-09-09T00:13:09;2.97;;;1.25;;
65753;SDS011;52488;47.502;18.940;2022-09-09T00:14:31;1.00;;;1.00;;
65753;SDS011;52488;47.502;18.940;2022-09-09T00:16:52;0.95;;;0.95;;
65753;SDS011;52488;47.502;18.940;2022-09-09T00:19:24;2.70;;;1.20;;
65753;SDS011;52488;47.502;18.940;2022-09-09T00:21:01;2.22;;;1.12;;
65753;SDS011;52488;47.502;18.940;2022-09-09T00:22:20;1.00;;;1.00;;
65753;SDS011;52488;47.502;18.940;2022-09-09T00:23:30;1.40;;;1.30;;
65753;SDS011;52488;47.502;18.940;2022-09-09T00:27:28;2.42;;;1.37;;
65753;SDS011;52488;47.502;18.940;2022-09-09T00:28:42;1.30;;;1.20;;
65753;SDS011;52488;47.502;18.940;2022-09-09T00:30:14;1.85;;;1.48;;
65753;SDS011;52488;47.502;18.940;2022-09-09T00:31:26;2.85;;;1.50;;
65753;SDS011;52488;47.502;18.940;2022-09-09T00:32:31;1.50;;;1.40;;
65753;SDS011;52488;47.502;18.940;2022-09-09T00:33:38;2.55;;;1.90;;
65753;SDS011;52488;47.502;18.940;2022-09-09T00:35:52;3.22;;;2.62;;
65753;SDS011;52488;47.502;18.940;2022-09-09T00:36:59;3.83;;;2.40;;
65753;SDS011;52488;47.502;18.940;2022-09-09T00:38:10;3.40;;;2.45;;
65753;SDS011;52488;47.502;18.940;2022-09-09T00:40:56;2.33;;;2.12;;
65753;SDS011;52488;47.502;18.940;2022-09-09T00:42:15;6.85;;;2.45;;
65753;SDS011;52488;47.502;18.940;2022-09-09T00:43:37;4.85;;;3.37;;
65753;SDS011;52488;47.502;18.940;2022-09-09T00:45:52;3.42;;;3.12;;
65753;SDS011;52488;47.502;18.940;2022-09-09T00:48:21;6.25;;;3.05;;
65753;SDS011;52488;47.502;18.940;2022-09-09T00:50:54;4.25;;;2.90;;
65753;SDS011;52488;47.502;18.940;2022-09-09T00:53:27;2.40;;;2.20;;
65753;SDS011;52488;47.502;18.940;2022-09-09T00:55:12;2.90;;;2.60;;
65753;SDS011;52488;47.502;18.940;2022-09-09T00:56:22;3.83;;;2.03;;
65753;SDS011;52488;47.502;18.940;2022-09-09T00:57:33;2.25;;;2.12;;
65753;SDS011;52488;47.502;18.940;2022-09-09T00:58:37;2.92;;;2.03;;
65753;SDS011;52488;47.502;18.940;2022-09-09T00:59:46;4.57;;;2.12;;
65753;SDS011;52488;47.502;18.940;2022-09-09T01:00:52;3.70;;;2.58;;
65753;SDS011;52488;47.502;18.940;2022-09-09T01:02:16;2.47;;;2.28;;
65753;SDS011;52488;47.502;18.940;2022-09-09T01:04:53;4.30;;;2.30;;
65753;SDS011;52488;47.502;18.940;2022-09-09T01:06:01;3.85;;;2.30;;
65753;SDS011;52488;47.502;18.940;2022-09-09T01:07:23;4.50;;;2.30;;
65753;SDS011;52488;47.502;18.940;2022-09-09T01:09:57;7.30;;;2.45;;
65753;SDS011;52488;47.502;18.940;2022-09-09T01:11:03;3.78;;;2.60;;
65753;SDS011;52488;47.502;18.940;2022-09-09T01:12:16;3.10;;;2.70;;
65753;SDS011;52488;47.502;18.940;2022-09-09T01:13:28;3.65;;;2.42;;
65753;SDS011;52488;47.502;18.940;2022-09-09T01:15:42;3.08;;;2.62;;
65753;SDS011;52488;47.502;18.940;2022-09-09T01:16:48;5.00;;;2.87;;
65753;SDS011;52488;47.502;18.940;2022-09-09T01:18:02;9.32;;;3.00;;
65753;SDS011;52488;47.502;18.940;2022-09-09T01:19:08;2.80;;;2.60;;
65753;SDS011;52488;47.502;18.940;2022-09-09T01:20:29;5.95;;;3.35;;
65753;SDS011;52488;47.502;18.940;2022-09-09T01:26:46;6.95;;;5.65;;
65753;SDS011;52488;47.502;18.940;2022-09-09T01:27:51;8.80;;;5.55;;
65753;SDS011;52488;47.502;18.940;2022-09-09T01:28:57;7.70;;;6.43;;
65753;SDS011;52488;47.502;18.940;2022-09-09T01:30:00;7.82;;;6.30;;
65753;SDS011;52488;47.502;18.940;2022-09-09T01:31:04;8.55;;;6.65;;
65753;SDS011;52488;47.502;18.940;2022-09-09T01:33:40;11.52;;;6.90;;
65753;SDS011;52488;47.502;18.940;2022-09-09T01:34:43;10.25;;;7.28;;
65753;SDS011;52488;47.502;18.940;2022-09-09T01:37:06;8.63;;;6.55;;
65753;SDS011;52488;47.502;18.940;2022-09-09T01:38:11;9.05;;;6.75;;
65753;SDS011;52488;47.502;18.940;2022-09-09T01:39:15;9.32;;;8.35;;
65753;SDS011;52488;47.502;18.940;2022-09-09T01:40:18;10.32;;;8.13;;
65753;SDS011;52488;47.502;18.940;2022-09-09T01:41:21;10.60;;;8.68;;
65753;SDS011;52488;47.502;18.940;2022-09-09T01:42:24;10.00;;;9.00;;
65753;SDS011;52488;47.502;18.940;2022-09-09T01:43:27;11.90;;;9.95;;
65753;SDS011;52488;47.502;18.940;2022-09-09T01:44:31;10.75;;;9.50;;
65753;SDS011;52488;47.502;18.940;2022-09-09T01:45:34;7.30;;;5.45;;
65753;SDS011;52488;47.502;18.940;2022-09-09T01:46:38;6.70;;;5.68;;
65753;SDS011;52488;47.502;18.940;2022-09-09T01:47:41;5.85;;;3.80;;
65753;SDS011;52488;47.502;18.940;2022-09-09T01:48:44;5.80;;;3.62;;
65753;SDS011;52488;47.502;18.940;2022-09-09T01:49:51;3.72;;;3.10;;
65753;SDS011;52488;47.502;18.940;2022-09-09T01:50:54;3.50;;;2.47;;
65753;SDS011;52488;47.502;18.940;2022-09-09T01:52:00;3.15;;;2.30;;
65753;SDS011;52488;47.502;18.940;2022-09-09T01:53:03;2.72;;;2.47;;
65753;SDS011;52488;47.502;18.940;2022-09-09T01:54:06;2.65;;;2.45;;
65753;SDS011;52488;47.502;18.940;2022-09-09T01:55:10;6.50;;;2.70;;
65753;SDS011;52488;47.502;18.940;2022-09-09T01:57:50;4.00;;;2.30;;
65753;SDS011;52488;47.502;18.940;2022-09-09T01:59:18;2.45;;;1.55;;
65753;SDS011;52488;47.502;18.940;2022-09-09T02:00:31;3.30;;;1.62;;
65753;SDS011;52488;47.502;18.940;2022-09-09T02:04:15;2.08;;;1.55;;
65753;SDS011;52488;47.502;18.940;2022-09-09T02:06:40;1.75;;;1.40;;
65753;SDS011;52488;47.502;18.940;2022-09-09T02:07:47;2.78;;;1.50;;
65753;SDS011;52488;47.502;18.940;2022-09-09T02:08:53;6.18;;;1.40;;
65753;SDS011;52488;47.502;18.940;2022-09-09T02:10:02;6.40;;;1.52;;
65753;SDS011;52488;47.502;18.940;2022-09-09T02:11:15;1.40;;;1.30;;
65753;SDS011;52488;47.502;18.940;2022-09-09T02:12:20;1.40;;;1.30;;
65753;SDS011;52488;47.502;18.940;2022-09-09T02:13:27;1.50;;;1.37;;
65753;SDS011;52488;47.502;18.940;2022-09-09T02:14:36;2.33;;;1.20;;
65753;SDS011;52488;47.502;18.940;2022-09-09T02:15:50;1.15;;;1.05;;
65753;SDS011;52488;47.502;18.940;2022-09-09T02:17:07;4.18;;;1.25;;
65753;SDS011;52488;47.502;18.940;2022-09-09T02:18:13;4.62;;;1.20;;
65753;SDS011;52488;47.502;18.940;2022-09-09T02:19:25;3.55;;;1.50;;
65753;SDS011;52488;47.502;18.940;2022-09-09T02:20:34;4.18;;;1.40;;
65753;SDS011;52488;47.502;18.940;2022-09-09T02:21:40;3.67;;;1.20;;
65753;SDS011;52488;47.502;18.940;2022-09-09T02:22:47;2.80;;;1.20;;
65753;SDS011;52488;47.502;18.940;2022-09-09T02:23:53;0.98;;;0.98;;
65753;SDS011;52488;47.502;18.940;2022-09-09T02:24:59;1.20;;;1.10;;
65753;SDS011;52488;47.502;18.940;2022-09-09T02:26:02;1.48;;;1.37;;
65753;SDS011;52488;47.502;18.940;2022-09-09T02:27:07;2.62;;;1.15;;
65753;SDS011;52488;47.502;18.940;2022-09-09T02:28:11;2.55;;;1.60;;
65753;SDS011;52488;47.502;18.940;2022-09-09T02:29:30;1.00;;;1.00;;
65753;SDS011;52488;47.502;18.940;2022-09-09T02:30:37;2.55;;;1.23;;
65753;SDS011;52488;47.502;18.940;2022-09-09T02:31:42;0.90;;;0.90;;
65753;SDS011;52488;47.502;18.940;2022-09-09T02:32:48;8.70;;;1.30;;
65753;SDS011;52488;47.502;18.940;2022-09-09T02:33:56;2.37;;;1.10;;
65753;SDS011;52488;47.502;18.940;2022-09-09T02:35:06;0.90;;;0.90;;
65753;SDS011;52488;47.502;18.940;2022-09-09T02:36:13;2.85;;;1.17;;
65753;SDS011;52488;47.502;18.940;2022-09-09T02:37:20;2.92;;;1.05;;
65753;SDS011;52488;47.502;18.940;2022-09-09T02:38:28;2.72;;;1.10;;
65753;SDS011;52488;47.502;18.940;2022-09-09T02:39:37;1.02;;;0.93;;
65753;SDS011;52488;47.502;18.940;2022-09-09T02:40:40;2.47;;;0.90;;
65753;SDS011;52488;47.502;18.940;2022-09-09T02:41:45;3.90;;;1.12;;
65753;SDS011;52488;47.502;18.940;2022-09-09T02:42:49;1.00;;;1.00;;
65753;SDS011;52488;47.502;18.940;2022-09-09T02:43:54;3.78;;;1.20;;
65753;SDS011;52488;47.502;18.940;2022-09-09T02:44:57;1.35;;;1.25;;
65753;SDS011;52488;47.502;18.940;2022-09-09T02:46:18;3.08;;;1.40;;
65753;SDS011;52488;47.502;18.940;2022-09-09T02:48:41;1.50;;;1.40;;
65753;SDS011;52488;47.502;18.940;2022-09-09T02:51:17;5.00;;;1.50;;
65753;SDS011;52488;47.502;18.940;2022-09-09T02:52:27;1.85;;;1.30;;
65753;SDS011;52488;47.502;18.940;2022-09-09T02:53:45;4.00;;;1.30;;
65753;SDS011;52488;47.502;18.940;2022-09-09T02:55:06;4.10;;;1.00;;
65753;SDS011;52488;47.502;18.940;2022-09-09T02:56:17;2.92;;;1.30;;
65753;SDS011;52488;47.502;18.940;2022-09-09T02:57:27;0.85;;;0.85;;
65753;SDS011;52488;47.502;18.940;2022-09-09T02:58:34;3.97;;;1.23;;
65753;SDS011;52488;47.502;18.940;2022-09-09T02:59:38;0.90;;;0.90;;
65753;SDS011;52488;47.502;18.940;2022-09-09T03:00:42;2.08;;;0.98;;
65753;SDS011;52488;47.502;18.940;2022-09-09T03:01:50;3.12;;;0.90;;
65753;SDS011;52488;47.502;18.940;2022-09-09T03:02:53;0.93;;;0.93;;
65753;SDS011;52488;47.502;18.940;2022-09-09T03:03:56;1.85;;;1.12;;
65753;SDS011;52488;47.502;18.940;2022-09-09T03:04:59;2.15;;;0.80;;
65753;SDS011;52488;47.502;18.940;2022-09-09T03:06:02;4.18;;;1.05;;
65753;SDS011;52488;47.502;18.940;2022-09-09T03:07:05;1.10;;;1.00;;
65753;SDS011;52488;47.502;18.940;2022-09-09T03:08:08;0.90;;;0.90;;
65753;SDS011;52488;47.502;18.940;2022-09-09T03:09:11;3.40;;;0.80;;
65753;SDS011;52488;47.502;18.940;2022-09-09T03:10:14;1.62;;;1.15;;
65753;SDS011;52488;47.502;18.940;2022-09-09T03:11:17;0.90;;;0.90;;
65753;SDS011;52488;47.502;18.940;2022-09-09T03:12:20;2.62;;;1.12;;
65753;SDS011;52488;47.502;18.940;2022-09-09T03:13:23;5.82;;;0.98;;
65753;SDS011;52488;47.502;18.940;2022-09-09T03:14:27;1.45;;;0.70;;
65753;SDS011;52488;47.502;18.940;2022-09-09T03:15:31;0.85;;;0.85;;
65753;SDS011;52488;47.502;18.940;2022-09-09T03:16:35;4.57;;;0.80;;
65753;SDS011;52488;47.502;18.940;2022-09-09T03:17:38;2.92;;;0.98;;
65753;SDS011;52488;47.502;18.940;2022-09-09T03:18:41;2.55;;;0.70;;
65753;SDS011;52488;47.502;18.940;2022-09-09T03:19:45;4.25;;;0.90;;
65753;SDS011;52488;47.502;18.940;2022-09-09T03:20:48;2.83;;;0.80;;
65753;SDS011;52488;47.502;18.940;2022-09-09T03:21:51;2.10;;;1.12;;
65753;SDS011;52488;47.502;18.940;2022-09-09T03:22:54;2.67;;;1.02;;
65753;SDS011;52488;47.502;18.940;2022-09-09T03:24:01;4.82;;;0.95;;
65753;SDS011;52488;47.502;18.940;2022-09-09T03:25:05;2.22;;;1.10;;
65753;SDS011;52488;47.502;18.940;2022-09-09T03:26:09;0.77;;;0.77;;
65753;SDS011;52488;47.502;18.940;2022-09-09T03:27:12;3.85;;;0.93;;
65753;SDS011;52488;47.502;18.940;2022-09-09T03:28:17;2.87;;;1.30;;
65753;SDS011;52488;47.502;18.940;2022-09-09T03:29:20;2.40;;;1.02;;
65753;SDS011;52488;47.502;18.940;2022-09-09T03:30:24;11.43;;;1.17;;
65753;SDS011;52488;47.502;18.940;2022-09-09T03:31:29;3.60;;;1.00;;
65753;SDS011;52488;47.502;18.940;2022-09-09T03:32:32;1.42;;;0.80;;
65753;SDS011;52488;47.502;18.940;2022-09-09T03:33:38;0.88;;;0.88;;
65753;SDS011;52488;47.502;18.940;2022-09-09T03:34:43;1.23;;;1.10;;
65753;SDS011;52488;47.502;18.940;2022-09-09T03:35:46;7.05;;;1.10;;
65753;SDS011;52488;47.502;18.940;2022-09-09T03:36:53;2.25;;;0.90;;
65753;SDS011;52488;47.502;18.940;2022-09-09T03:37:56;5.65;;;1.10;;
65753;SDS011;52488;47.502;18.940;2022-09-09T03:38:59;1.40;;;1.15;;
65753;SDS011;52488;47.502;18.940;2022-09-09T03:40:02;1.00;;;0.90;;
65753;SDS011;52488;47.502;18.940;2022-09-09T03:41:06;3.80;;;0.93;;
65753;SDS011;52488;47.502;18.940;2022-09-09T03:42:12;1.27;;;1.17;;
65753;SDS011;52488;47.502;18.940;2022-09-09T03:43:16;7.12;;;1.02;;
65753;SDS011;52488;47.502;18.940;2022-09-09T03:44:19;1.12;;;1.02;;
65753;SDS011;52488;47.502;18.940;2022-09-09T03:45:22;4.37;;;1.08;;
65753;SDS011;52488;47.502;18.940;2022-09-09T03:46:26;1.08;;;0.98;;
65753;SDS011;52488;47.502;18.940;2022-09-09T03:47:29;1.05;;;0.95;;
65753;SDS011;52488;47.502;18.940;2022-09-09T03:48:32;2.65;;;0.93;;
65753;SDS011;52488;47.502;18.940;2022-09-09T03:49:35;6.45;;;1.00;;
65753;SDS011;52488;47.502;18.940;2022-09-09T03:50:38;0.90;;;0.90;;
65753;SDS011;52488;47.502;18.940;2022-09-09T03:51:41;1.10;;;1.00;;
65753;SDS011;52488;47.502;18.940;2022-09-09T03:52:44;4.10;;;1.00;;
65753;SDS011;52488;47.502;18.940;2022-09-09T03:53:48;1.85;;;0.80;;
65753;SDS011;52488;47.502;18.940;2022-09-09T03:54:51;1.20;;;0.90;;
65753;SDS011;52488;47.502;18.940;2022-09-09T03:55:55;2.47;;;0.85;;
65753;SDS011;52488;47.502;18.940;2022-09-09T03:57:02;4.53;;;0.90;;
65753;SDS011;52488;47.502;18.940;2022-09-09T03:58:06;8.40;;;1.20;;
65753;SDS011;52488;47.502;18.940;2022-09-09T03:59:10;2.45;;;1.20;;
65753;SDS011;52488;47.502;18.940;2022-09-09T04:00:13;1.80;;;1.05;;
65753;SDS011;52488;47.502;18.940;2022-09-09T04:01:16;2.83;;;0.90;;
65753;SDS011;52488;47.502;18.940;2022-09-09T04:02:20;1.20;;;1.10;;
65753;SDS011;52488;47.502;18.940;2022-09-09T04:03:24;0.85;;;0.85;;
65753;SDS011;52488;47.502;18.940;2022-09-09T04:04:29;1.85;;;1.00;;
65753;SDS011;52488;47.502;18.940;2022-09-09T04:05:32;1.27;;;1.00;;
65753;SDS011;52488;47.502;18.940;2022-09-09T04:06:36;2.67;;;0.98;;
65753;SDS011;52488;47.502;18.940;2022-09-09T04:07:39;1.37;;;0.90;;
65753;SDS011;52488;47.502;18.940;2022-09-09T04:08:42;1.08;;;1.00;;
65753;SDS011;52488;47.502;18.940;2022-09-09T04:09:46;4.03;;;1.20;;
65753;SDS011;52488;47.502;18.940;2022-09-09T04:10:49;1.85;;;0.98;;
65753;SDS011;52488;47.502;18.940;2022-09-09T04:11:52;1.33;;;1.08;;
65753;SDS011;52488;47.502;18.940;2022-09-09T04:12:55;2.20;;;1.00;;
65753;SDS011;52488;47.502;18.940;2022-09-09T04:13:58;3.42;;;0.90;;
65753;SDS011;52488;47.502;18.940;2022-09-09T04:15:01;2.40;;;1.00;;
65753;SDS011;52488;47.502;18.940;2022-09-09T04:16:05;5.45;;;1.35;;
65753;SDS011;52488;47.502;18.940;2022-09-09T04:17:08;1.17;;;1.00;;
65753;SDS011;52488;47.502;18.940;2022-09-09T04:18:13;1.83;;;1.10;;
65753;SDS011;52488;47.502;18.940;2022-09-09T04:19:23;1.80;;;0.88;;
65753;SDS011;52488;47.502;18.940;2022-09-09T04:20:26;3.85;;;1.17;;
65753;SDS011;52488;47.502;18.940;2022-09-09T04:21:30;1.00;;;0.90;;
65753;SDS011;52488;47.502;18.940;2022-09-09T04:22:33;4.15;;;1.08;;
65753;SDS011;52488;47.502;18.940;2022-09-09T04:23:36;4.75;;;1.10;;
65753;SDS011;52488;47.502;18.940;2022-09-09T04:24:39;7.40;;;1.45;;
65753;SDS011;52488;47.502;18.940;2022-09-09T04:25:47;1.37;;;0.80;;
65753;SDS011;52488;47.502;18.940;2022-09-09T04:26:51;5.05;;;1.20;;
65753;SDS011;52488;47.502;18.940;2022-09-09T04:27:55;2.50;;;1.10;;
65753;SDS011;52488;47.502;18.940;2022-09-09T04:29:00;6.90;;;1.10;;
65753;SDS011;52488;47.502;18.940;2022-09-09T04:30:03;3.42;;;0.85;;
65753;SDS011;52488;47.502;18.940;2022-09-09T04:31:14;5.57;;;1.20;;
65753;SDS011;52488;47.502;18.940;2022-09-09T04:32:22;6.62;;;1.20;;
65753;SDS011;52488;47.502;18.940;2022-09-09T04:33:25;1.65;;;1.20;;
65753;SDS011;52488;47.502;18.940;2022-09-09T04:34:32;5.10;;;1.10;;
65753;SDS011;52488;47.502;18.940;2022-09-09T04:35:35;3.22;;;1.15;;
65753;SDS011;52488;47.502;18.940;2022-09-09T04:36:38;3.80;;;1.10;;
65753;SDS011;52488;47.502;18.940;2022-09-09T04:37:42;2.95;;;1.27;;
65753;SDS011;52488;47.502;18.940;2022-09-09T04:38:47;2.50;;;1.27;;
65753;SDS011;52488;47.502;18.940;2022-09-09T04:39:51;2.85;;;1.15;;
65753;SDS011;52488;47.502;18.940;2022-09-09T04:40:54;2.40;;;1.00;;
65753;SDS011;52488;47.502;18.940;2022-09-09T04:41:58;1.92;;;1.00;;
65753;SDS011;52488;47.502;18.940;2022-09-09T04:43:02;6.28;;;1.10;;
65753;SDS011;52488;47.502;18.940;2022-09-09T04:44:14;4.50;;;1.12;;
65753;SDS011;52488;47.502;18.940;2022-09-09T04:45:18;1.30;;;1.20;;
65753;SDS011;52488;47.502;18.940;2022-09-09T04:46:21;1.48;;;1.12;;
65753;SDS011;52488;47.502;18.940;2022-09-09T04:47:25;2.08;;;1.02;;
65753;SDS011;52488;47.502;18.940;2022-09-09T04:48:29;2.35;;;1.17;;
65753;SDS011;52488;47.502;18.940;2022-09-09T04:49:33;1.80;;;1.08;;
65753;SDS011;52488;47.502;18.940;2022-09-09T04:50:36;3.65;;;1.00;;
65753;SDS011;52488;47.502;18.940;2022-09-09T04:51:39;1.02;;;0.93;;
65753;SDS011;52488;47.502;18.940;2022-09-09T04:52:42;2.58;;;1.15;;
65753;SDS011;52488;47.502;18.940;2022-09-09T04:53:45;2.53;;;1.05;;
65753;SDS011;52488;47.502;18.940;2022-09-09T04:54:49;6.28;;;1.20;;
65753;SDS011;52488;47.502;18.940;2022-09-09T04:56:14;1.80;;;1.00;;
65753;SDS011;52488;47.502;18.940;2022-09-09T04:57:17;1.45;;;0.98;;
65753;SDS011;52488;47.502;18.940;2022-09-09T04:58:23;2.90;;;1.10;;
65753;SDS011;52488;47.502;18.940;2022-09-09T04:59:25;2.80;;;1.23;;
65753;SDS011;52488;47.502;18.940;2022-09-09T05:00:28;3.70;;;1.10;;
65753;SDS011;52488;47.502;18.940;2022-09-09T05:01:31;2.62;;;1.15;;
65753;SDS011;52488;47.502;18.940;2022-09-09T05:02:37;4.25;;;1.42;;
65753;SDS011;52488;47.502;18.940;2022-09-09T05:03:41;9.95;;;1.77;;
65753;SDS011;52488;47.502;18.940;2022-09-09T05:04:47;1.87;;;1.05;;
65753;SDS011;52488;47.502;18.940;2022-09-09T05:05:51;1.15;;;1.05;;
65753;SDS011;52488;47.502;18.940;2022-09-09T05:06:55;1.55;;;1.00;;
65753;SDS011;52488;47.502;18.940;2022-09-09T05:08:01;1.37;;;1.10;;
65753;SDS011;52488;47.502;18.940;2022-09-09T05:09:09;2.33;;;1.10;;
65753;SDS011;52488;47.502;18.940;2022-09-09T05:10:11;1.52;;;1.05;;
65753;SDS011;52488;47.502;18.940;2022-09-09T05:11:18;1.60;;;1.00;;
65753;SDS011;52488;47.502;18.940;2022-09-09T05:12:25;1.60;;;1.05;;
65753;SDS011;52488;47.502;18.940;2022-09-09T05:13:28;1.25;;;1.10;;
65753;SDS011;52488;47.502;18.940;2022-09-09T05:14:33;1.20;;;1.10;;
65753;SDS011;52488;47.502;18.940;2022-09-09T05:15:38;2.12;;;1.10;;
65753;SDS011;52488;47.502;18.940;2022-09-09T05:16:41;1.58;;;1.00;;
65753;SDS011;52488;47.502;18.940;2022-09-09T05:17:46;3.30;;;1.12;;
65753;SDS011;52488;47.502;18.940;2022-09-09T05:18:50;1.02;;;0.98;;
65753;SDS011;52488;47.502;18.940;2022-09-09T05:19:53;1.10;;;0.90;;
65753;SDS011;52488;47.502;18.940;2022-09-09T05:20:59;3.35;;;0.98;;
65753;SDS011;52488;47.502;18.940;2022-09-09T05:22:02;1.17;;;1.17;;
65753;SDS011;52488;47.502;18.940;2022-09-09T05:23:07;2.22;;;1.10;;
65753;SDS011;52488;47.502;18.940;2022-09-09T05:24:10;1.00;;;0.98;;
65753;SDS011;52488;47.502;18.940;2022-09-09T05:25:13;1.00;;;1.00;;
65753;SDS011;52488;47.502;18.940;2022-09-09T05:26:17;2.20;;;1.00;;
65753;SDS011;52488;47.502;18.940;2022-09-09T05:27:22;1.30;;;1.20;;
65753;SDS011;52488;47.502;18.940;2022-09-09T05:28:25;2.53;;;1.00;;
65753;SDS011;52488;47.502;18.940;2022-09-09T05:29:29;2.05;;;1.17;;
65753;SDS011;52488;47.502;18.940;2022-09-09T05:30:34;1.90;;;1.15;;
65753;SDS011;52488;47.502;18.940;2022-09-09T05:31:37;2.65;;;1.20;;
65753;SDS011;52488;47.502;18.940;2022-09-09T05:32:41;1.00;;;1.00;;
65753;SDS011;52488;47.502;18.940;2022-09-09T05:33:44;2.65;;;1.00;;
65753;SDS011;52488;47.502;18.940;2022-09-09T05:34:48;2.65;;;1.20;;
65753;SDS011;52488;47.502;18.940;2022-09-09T05:35:58;1.20;;;1.10;;
65753;SDS011;52488;47.502;18.940;2022-09-09T05:37:10;1.30;;;1.20;;
65753;SDS011;52488;47.502;18.940;2022-09-09T05:38:13;1.75;;;1.20;;
65753;SDS011;52488;47.502;18.940;2022-09-09T05:39:18;1.08;;;0.90;;
65753;SDS011;52488;47.502;18.940;2022-09-09T05:40:21;2.15;;;1.30;;
65753;SDS011;52488;47.502;18.940;2022-09-09T05:41:24;1.20;;;1.10;;
65753;SDS011;52488;47.502;18.940;2022-09-09T05:42:30;2.58;;;1.30;;
65753;SDS011;52488;47.502;18.940;2022-09-09T05:43:35;1.60;;;1.50;;
65753;SDS011;52488;47.502;18.940;2022-09-09T05:44:38;1.62;;;1.12;;
65753;SDS011;52488;47.502;18.940;2022-09-09T05:45:40;1.92;;;1.20;;
65753;SDS011;52488;47.502;18.940;2022-09-09T05:46:43;2.50;;;1.20;;
65753;SDS011;52488;47.502;18.940;2022-09-09T05:47:51;1.42;;;1.10;;
65753;SDS011;52488;47.502;18.940;2022-09-09T05:48:55;2.67;;;1.33;;
65753;SDS011;52488;47.502;18.940;2022-09-09T05:49:58;2.90;;;1.40;;
65753;SDS011;52488;47.502;18.940;2022-09-09T05:51:02;1.87;;;1.50;;
65753;SDS011;52488;47.502;18.940;2022-09-09T05:52:05;2.10;;;1.25;;
65753;SDS011;52488;47.502;18.940;2022-09-09T05:53:08;4.28;;;1.33;;
65753;SDS011;52488;47.502;18.940;2022-09-09T05:54:12;1.60;;;1.33;;
65753;SDS011;52488;47.502;18.940;2022-09-09T05:55:17;2.22;;;1.50;;
65753;SDS011;52488;47.502;18.940;2022-09-09T05:56:21;1.50;;;1.40;;
65753;SDS011;52488;47.502;18.940;2022-09-09T05:57:27;2.22;;;1.60;;
65753;SDS011;52488;47.502;18.940;2022-09-09T05:58:33;3.80;;;1.52;;
65753;SDS011;52488;47.502;18.940;2022-09-09T05:59:37;1.50;;;1.40;;
65753;SDS011;52488;47.502;18.940;2022-09-09T06:00:40;1.75;;;1.65;;
65753;SDS011;52488;47.502;18.940;2022-09-09T06:01:43;1.70;;;1.60;;
65753;SDS011;52488;47.502;18.940;2022-09-09T06:02:51;1.98;;;1.35;;
65753;SDS011;52488;47.502;18.940;2022-09-09T06:03:55;3.05;;;1.48;;
65753;SDS011;52488;47.502;18.940;2022-09-09T06:04:58;2.12;;;1.33;;
65753;SDS011;52488;47.502;18.940;2022-09-09T06:06:05;1.95;;;1.42;;
65753;SDS011;52488;47.502;18.940;2022-09-09T06:07:14;3.65;;;1.40;;
65753;SDS011;52488;47.502;18.940;2022-09-09T06:08:17;1.15;;;1.15;;
65753;SDS011;52488;47.502;18.940;2022-09-09T06:09:20;3.03;;;1.40;;
65753;SDS011;52488;47.502;18.940;2022-09-09T06:10:23;1.77;;;1.40;;
65753;SDS011;52488;47.502;18.940;2022-09-09T06:11:27;2.95;;;1.30;;
65753;SDS011;52488;47.502;18.940;2022-09-09T06:12:35;1.30;;;1.08;;
65753;SDS011;52488;47.502;18.940;2022-09-09T06:13:38;1.25;;;1.20;;
65753;SDS011;52488;47.502;18.940;2022-09-09T06:14:42;1.27;;;1.15;;
65753;SDS011;52488;47.502;18.940;2022-09-09T06:15:50;2.22;;;1.30;;
65753;SDS011;52488;47.502;18.940;2022-09-09T06:16:54;2.83;;;1.17;;
65753;SDS011;52488;47.502;18.940;2022-09-09T06:17:57;2.20;;;1.37;;
65753;SDS011;52488;47.502;18.940;2022-09-09T06:19:00;1.87;;;1.10;;
65753;SDS011;52488;47.502;18.940;2022-09-09T06:20:05;1.45;;;1.00;;
65753;SDS011;52488;47.502;18.940;2022-09-09T06:21:11;1.40;;;1.30;;
65753;SDS011;52488;47.502;18.940;2022-09-09T06:22:23;1.20;;;1.10;;
65753;SDS011;52488;47.502;18.940;2022-09-09T06:23:26;3.10;;;1.33;;
65753;SDS011;52488;47.502;18.940;2022-09-09T06:24:30;2.87;;;1.33;;
65753;SDS011;52488;47.502;18.940;2022-09-09T06:25:35;1.67;;;1.30;;
65753;SDS011;52488;47.502;18.940;2022-09-09T06:26:38;3.45;;;1.40;;
65753;SDS011;52488;47.502;18.940;2022-09-09T06:27:48;3.20;;;1.33;;
65753;SDS011;52488;47.502;18.940;2022-09-09T06:28:52;1.98;;;1.27;;
65753;SDS011;52488;47.502;18.940;2022-09-09T06:29:57;1.17;;;1.10;;
65753;SDS011;52488;47.502;18.940;2022-09-09T06:31:00;3.75;;;1.35;;
65753;SDS011;52488;47.502;18.940;2022-09-09T06:32:06;1.52;;;1.35;;
65753;SDS011;52488;47.502;18.940;2022-09-09T06:33:10;2.00;;;1.58;;
65753;SDS011;52488;47.502;18.940;2022-09-09T06:34:13;1.67;;;1.20;;
65753;SDS011;52488;47.502;18.940;2022-09-09T06:35:16;2.60;;;1.40;;
65753;SDS011;52488;47.502;18.940;2022-09-09T06:36:20;2.05;;;1.85;;
65753;SDS011;52488;47.502;18.940;2022-09-09T06:37:25;2.47;;;1.60;;
65753;SDS011;52488;47.502;18.940;2022-09-09T06:38:29;3.17;;;1.37;;
65753;SDS011;52488;47.502;18.940;2022-09-09T06:39:32;3.45;;;1.55;;
65753;SDS011;52488;47.502;18.940;2022-09-09T06:40:35;1.50;;;1.40;;
65753;SDS011;52488;47.502;18.940;2022-09-09T06:41:38;2.28;;;1.50;;
65753;SDS011;52488;47.502;18.940;2022-09-09T06:42:41;4.50;;;1.70;;
65753;SDS011;52488;47.502;18.940;2022-09-09T06:43:45;4.22;;;1.50;;
65753;SDS011;52488;47.502;18.940;2022-09-09T06:44:48;2.67;;;1.50;;
65753;SDS011;52488;47.502;18.940;2022-09-09T06:45:55;2.17;;;1.83;;
65753;SDS011;52488;47.502;18.940;2022-09-09T06:47:03;2.30;;;2.10;;
65753;SDS011;52488;47.502;18.940;2022-09-09T06:48:06;4.07;;;2.00;;
65753;SDS011;52488;47.502;18.940;2022-09-09T06:49:09;2.42;;;1.70;;
65753;SDS011;52488;47.502;18.940;2022-09-09T06:50:12;4.12;;;2.20;;
65753;SDS011;52488;47.502;18.940;2022-09-09T06:51:19;5.45;;;2.15;;
65753;SDS011;52488;47.502;18.940;2022-09-09T06:52:24;2.37;;;1.75;;
65753;SDS011;52488;47.502;18.940;2022-09-09T06:53:29;3.40;;;1.70;;
65753;SDS011;52488;47.502;18.940;2022-09-09T06:54:32;2.85;;;1.87;;
65753;SDS011;52488;47.502;18.940;2022-09-09T06:55:37;3.40;;;1.92;;
65753;SDS011;52488;47.502;18.940;2022-09-09T06:56:42;5.20;;;1.80;;
65753;SDS011;52488;47.502;18.940;2022-09-09T06:57:47;2.58;;;1.50;;
65753;SDS011;52488;47.502;18.940;2022-09-09T06:58:51;2.40;;;1.55;;
65753;SDS011;52488;47.502;18.940;2022-09-09T06:59:55;2.55;;;1.40;;
65753;SDS011;52488;47.502;18.940;2022-09-09T07:01:07;6.30;;;1.80;;
65753;SDS011;52488;47.502;18.940;2022-09-09T07:02:10;3.45;;;1.42;;
65753;SDS011;52488;47.502;18.940;2022-09-09T07:03:13;1.35;;;1.10;;
65753;SDS011;52488;47.502;18.940;2022-09-09T07:04:16;2.95;;;1.20;;
65753;SDS011;52488;47.502;18.940;2022-09-09T07:05:19;1.77;;;1.30;;
65753;SDS011;52488;47.502;18.940;2022-09-09T07:06:25;2.78;;;1.23;;
65753;SDS011;52488;47.502;18.940;2022-09-09T07:07:30;2.62;;;1.15;;
65753;SDS011;52488;47.502;18.940;2022-09-09T07:08:33;2.78;;;1.30;;
65753;SDS011;52488;47.502;18.940;2022-09-09T07:09:36;2.70;;;1.23;;
65753;SDS011;52488;47.502;18.940;2022-09-09T07:10:40;4.47;;;1.52;;